Time;durP1;ratioP1;P1;durP2;ratioP2;P2;SDS_P1;SDS_P2;PMS_P1;PMS_P2;Temp;Humidity;BMP_temperature;BMP_pressure;BME280_temperature;BME280_humidity;BME280_pressure;Samples;Min_cycle;Max_cycle;Signal;HPM_P1;HPM_P2
2022/09/08 00:01:53;;;;;;;6.05;2.90;;;15.90;99.90;;;;;;4813279;29;20060;-83
2022/09/08 00:04:18;;;;;;;6.55;3.90;;;15.90;99.90;;;;;;4813851;29;20445;-83
2022/09/08 00:06:46;;;;;;;6.80;3.65;;;15.90;99.90;;;;;;4813780;29;20069;-83
2022/09/08 00:09:11;;;;;;;6.70;3.80;;;15.90;99.90;;;;;;4814053;29;20074;-83
2022/09/08 00:11:39;;;;;;;7.15;3.05;;;15.90;99.90;;;;;;4828735;29;20053;-83
2022/09/08 00:14:06;;;;;;;5.55;3.38;;;16.00;99.90;;;;;;4795748;29;20451;-83
2022/09/08 00:16:32;;;;;;;5.90;3.45;;;16.00;99.90;;;;;;4826307;29;20363;-83
2022/09/08 00:18:58;;;;;;;5.03;3.20;;;16.10;99.90;;;;;;4810636;29;20065;-83
2022/09/08 00:21:27;;;;;;;5.40;3.53;;;16.10;99.90;;;;;;4810189;29;20133;-83
2022/09/08 00:23:53;;;;;;;5.93;3.38;;;16.10;99.90;;;;;;4819363;29;20106;-83
2022/09/08 00:26:20;;;;;;;4.60;3.10;;;16.10;99.90;;;;;;4843090;29;20053;-83
2022/09/08 00:28:46;;;;;;;6.72;3.25;;;16.20;99.90;;;;;;4813374;29;20137;-83
2022/09/08 00:31:12;;;;;;;6.07;3.35;;;16.20;99.90;;;;;;4813083;29;20136;-83
2022/09/08 00:33:38;;;;;;;6.13;3.78;;;16.20;99.90;;;;;;4843284;29;20053;-83
2022/09/08 00:36:04;;;;;;;5.18;3.33;;;16.30;99.90;;;;;;4843081;29;20042;-83
2022/09/08 00:38:33;;;;;;;5.60;2.78;;;16.30;99.90;;;;;;4843980;29;20049;-83
2022/09/08 00:40:59;;;;;;;4.95;2.80;;;16.30;99.90;;;;;;4797744;29;20503;-83
2022/09/08 00:43:48;;;;;;;5.25;2.72;;;16.30;99.90;;;;;;4808729;29;20058;-83
2022/09/08 00:46:31;;;;;;;12.93;4.10;;;16.30;99.90;;;;;;4824832;29;20059;-83
2022/09/08 00:49:16;;;;;;;5.53;3.33;;;16.30;99.90;;;;;;4815277;29;20061;-83
2022/09/08 00:51:45;;;;;;;8.93;3.83;;;16.30;99.90;;;;;;4858396;29;20129;-83
2022/09/08 00:54:12;;;;;;;7.70;4.45;;;16.30;99.90;;;;;;4858101;29;20034;-83
2022/09/08 00:56:41;;;;;;;7.00;4.38;;;16.30;99.90;;;;;;4828053;29;20042;-83
2022/09/08 00:59:08;;;;;;;6.35;3.85;;;16.30;99.90;;;;;;4827467;29;20481;-83
2022/09/08 01:01:35;;;;;;;7.55;4.95;;;16.20;99.90;;;;;;4842940;29;20497;-83
2022/09/08 01:04:04;;;;;;;8.00;3.80;;;16.30;99.90;;;;;;4828001;29;20273;-83
2022/09/08 01:14:59;;;;;;;6.28;3.45;;;16.20;99.90;;;;;;4842332;29;20489;-82
2022/09/08 01:17:28;;;;;;;8.27;4.68;;;16.20;99.90;;;;;;4843633;29;20049;-82
2022/09/08 01:19:56;;;;;;;7.25;4.63;;;16.20;99.90;;;;;;4842448;29;20128;-82
2022/09/08 01:22:46;;;;;;;6.85;3.95;;;16.20;99.90;;;;;;4842727;29;20497;-82
2022/09/08 01:25:44;;;;;;;7.00;3.90;;;16.30;99.90;;;;;;4842627;29;20049;-82
2022/09/08 01:28:25;;;;;;;8.60;5.05;;;16.30;99.90;;;;;;4803186;29;20054;-82
2022/09/08 01:30:52;;;;;;;10.27;6.65;;;16.30;99.90;;;;;;4833850;29;20042;-82
2022/09/08 01:33:20;;;;;;;7.35;4.60;;;16.40;99.90;;;;;;4843285;29;20675;-82
2022/09/08 01:35:46;;;;;;;10.20;6.30;;;16.50;99.90;;;;;;4841809;29;20405;-82
2022/09/08 01:38:12;;;;;;;10.15;6.05;;;16.50;99.90;;;;;;4828299;29;20061;-82
2022/09/08 01:40:40;;;;;;;12.15;7.03;;;16.50;99.90;;;;;;4826566;29;20068;-81
2022/09/08 01:43:08;;;;;;;10.95;7.22;;;16.60;99.90;;;;;;4826115;29;20045;-81
2022/09/08 01:45:35;;;;;;;10.65;5.93;;;16.60;99.90;;;;;;4842001;29;20061;-81
2022/09/08 01:48:01;;;;;;;11.70;6.97;;;16.70;99.90;;;;;;4826919;29;20105;-82
2022/09/08 01:50:26;;;;;;;11.65;6.95;;;16.70;99.90;;;;;;4827335;29;20081;-82
2022/09/08 01:52:52;;;;;;;11.57;6.65;;;16.70;99.90;;;;;;4842588;29;20698;-82
2022/09/08 01:55:18;;;;;;;13.15;8.00;;;16.70;99.90;;;;;;4827212;29;20075;-82
2022/09/08 01:57:44;;;;;;;13.13;7.47;;;16.70;99.90;;;;;;4826102;29;20049;-83
2022/09/08 02:00:10;;;;;;;15.27;8.68;;;16.70;99.90;;;;;;4826561;29;20169;-83
2022/09/08 02:02:36;;;;;;;13.95;7.88;;;16.80;99.90;;;;;;4826491;29;20042;-83
2022/09/08 02:05:02;;;;;;;13.13;8.07;;;16.80;99.90;;;;;;4856573;29;20595;-83
2022/09/08 02:07:28;;;;;;;14.73;7.35;;;16.80;99.90;;;;;;4857561;29;20038;-83
2022/09/08 02:09:54;;;;;;;11.65;6.53;;;16.80;99.90;;;;;;4811579;29;20389;-83
2022/09/08 02:12:20;;;;;;;15.10;9.15;;;16.80;99.90;;;;;;4841843;29;20048;-83
2022/09/08 02:14:46;;;;;;;11.90;7.40;;;16.90;99.90;;;;;;4827027;29;20098;-83
2022/09/08 02:17:12;;;;;;;14.77;7.15;;;16.90;99.90;;;;;;4841242;29;20041;-83
2022/09/08 02:19:38;;;;;;;13.82;7.75;;;16.90;99.90;;;;;;4841481;29;20121;-83
2022/09/08 02:22:03;;;;;;;10.68;7.00;;;16.90;99.90;;;;;;4826909;29;20431;-83
2022/09/08 02:24:29;;;;;;;13.93;7.90;;;16.90;99.90;;;;;;4841982;29;20120;-83
2022/09/08 02:26:55;;;;;;;11.45;6.70;;;16.80;99.90;;;;;;4826977;29;20053;-83
2022/09/08 02:29:21;;;;;;;12.50;7.50;;;16.80;99.90;;;;;;4826580;29;20050;-83
2022/09/08 02:31:47;;;;;;;13.98;8.25;;;16.80;99.90;;;;;;4841522;29;20048;-82
2022/09/08 02:34:13;;;;;;;14.10;8.55;;;16.80;99.90;;;;;;4825770;29;20121;-82
2022/09/08 02:36:39;;;;;;;15.15;8.52;;;16.80;99.90;;;;;;4826342;29;20434;-82
2022/09/08 02:39:08;;;;;;;13.63;8.50;;;16.80;99.90;;;;;;4842425;29;20125;-82
2022/09/08 02:41:33;;;;;;;13.38;8.73;;;16.90;99.90;;;;;;4840008;29;20061;-82
2022/09/08 02:43:59;;;;;;;13.43;8.45;;;16.80;99.90;;;;;;4840036;29;20054;-82
2022/09/08 02:46:25;;;;;;;17.38;9.30;;;16.90;99.90;;;;;;4840913;29;20058;-82
2022/09/08 02:48:51;;;;;;;15.57;8.85;;;16.90;99.90;;;;;;4825829;29;20054;-82
2022/09/08 02:51:20;;;;;;;14.60;8.00;;;16.90;99.90;;;;;;4810676;29;20042;-82
2022/09/08 02:53:46;;;;;;;13.15;8.30;;;16.90;99.90;;;;;;4811551;29;20043;-82
2022/09/08 02:56:12;;;;;;;16.80;10.25;;;16.90;99.90;;;;;;4826229;29;20350;-82
2022/09/08 02:58:37;;;;;;;17.08;9.55;;;16.90;99.90;;;;;;4841328;29;20128;-82
2022/09/08 03:01:05;;;;;;;18.77;11.40;;;17.00;99.90;;;;;;4825772;29;20454;-82
2022/09/08 03:03:31;;;;;;;14.35;9.10;;;17.00;99.90;;;;;;4841506;29;20082;-82
2022/09/08 03:05:56;;;;;;;18.63;10.80;;;17.00;99.90;;;;;;4842093;29;20146;-82
2022/09/08 03:08:24;;;;;;;16.15;9.88;;;17.00;99.90;;;;;;4811260;29;20046;-82
2022/09/08 03:10:50;;;;;;;17.90;11.07;;;17.00;99.90;;;;;;4841450;29;20057;-82
2022/09/08 03:13:16;;;;;;;18.52;10.30;;;17.00;99.90;;;;;;4841565;29;20381;-82
2022/09/08 03:15:43;;;;;;;14.52;9.73;;;17.00;99.90;;;;;;4826376;29;20038;-82
2022/09/08 03:18:10;;;;;;;14.88;7.68;;;17.00;99.90;;;;;;4844771;29;20045;-82
2022/09/08 03:20:37;;;;;;;16.83;9.45;;;17.10;99.90;;;;;;4845041;29;20064;-82
2022/09/08 03:23:03;;;;;;;20.52;11.35;;;17.00;99.90;;;;;;4844082;29;20041;-82
2022/09/08 03:25:33;;;;;;;17.95;11.15;;;17.10;99.90;;;;;;4844026;29;20053;-82
2022/09/08 03:27:59;;;;;;;18.15;10.88;;;17.10;99.90;;;;;;4829037;29;20050;-82
2022/09/08 03:30:24;;;;;;;15.98;10.00;;;17.10;99.90;;;;;;4814221;29;20052;-82
2022/09/08 03:32:50;;;;;;;17.90;11.38;;;17.10;99.90;;;;;;4845415;29;20102;-82
2022/09/08 03:35:17;;;;;;;21.25;11.68;;;17.20;99.90;;;;;;4844048;29;20038;-82
2022/09/08 03:37:43;;;;;;;17.60;10.55;;;17.20;99.90;;;;;;4844730;29;20078;-82
2022/09/08 03:40:12;;;;;;;17.67;10.65;;;17.20;99.90;;;;;;4844159;29;20094;-82
2022/09/08 03:42:40;;;;;;;13.00;8.63;;;17.20;99.90;;;;;;4828823;29;20373;-82
2022/09/08 03:45:12;;;;;;;13.35;9.32;;;17.20;99.90;;;;;;4844255;29;20445;-82
2022/09/08 03:47:38;;;;;;;17.10;10.80;;;17.30;99.90;;;;;;4844145;29;20050;-82
2022/09/08 03:50:05;;;;;;;14.48;9.63;;;17.30;99.90;;;;;;4828705;29;20042;-82
2022/09/08 03:52:30;;;;;;;15.63;9.57;;;17.30;99.90;;;;;;4843918;29;20042;-82
2022/09/08 03:54:57;;;;;;;13.55;8.95;;;17.30;99.90;;;;;;4843958;29;20511;-82
2022/09/08 03:57:25;;;;;;;16.27;9.95;;;17.40;99.90;;;;;;4813377;29;20042;-82
2022/09/08 03:59:52;;;;;;;14.93;9.40;;;17.40;99.90;;;;;;4828658;29;20049;-82
2022/09/08 04:02:19;;;;;;;15.35;9.27;;;17.40;99.90;;;;;;4843911;29;20054;-82
2022/09/08 04:04:54;;;;;;;14.43;8.75;;;17.40;99.90;;;;;;4843615;29;20060;-82
2022/09/08 04:07:21;;;;;;;16.27;8.65;;;17.40;99.90;;;;;;4843246;29;20470;-82
2022/09/08 04:09:47;;;;;;;11.23;7.18;;;17.40;99.90;;;;;;4859382;29;20493;-82
2022/09/08 04:12:15;;;;;;;16.05;9.32;;;17.50;99.90;;;;;;4843740;29;20050;-83
2022/09/08 04:14:41;;;;;;;15.75;10.13;;;17.50;99.90;;;;;;4827929;29;20069;-83
2022/09/08 04:17:07;;;;;;;14.52;8.23;;;17.50;99.90;;;;;;4843080;29;20130;-83
2022/09/08 04:19:33;;;;;;;14.45;8.52;;;17.50;99.90;;;;;;4828061;29;20046;-83
2022/09/08 04:22:00;;;;;;;15.55;9.20;;;17.60;99.90;;;;;;4827876;29;20046;-84
2022/09/08 04:24:25;;;;;;;13.90;8.38;;;17.60;99.90;;;;;;4842964;29;20093;-84
2022/09/08 04:26:52;;;;;;;12.15;7.80;;;17.60;99.90;;;;;;4827162;29;20084;-83
2022/09/08 04:29:18;;;;;;;10.00;6.82;;;17.60;99.90;;;;;;4828693;29;20132;-83
2022/09/08 04:31:44;;;;;;;14.35;8.85;;;17.60;99.90;;;;;;4844574;29;20475;-83
2022/09/08 04:34:13;;;;;;;12.77;7.72;;;17.60;99.90;;;;;;4843078;29;20050;-83
2022/09/08 04:36:40;;;;;;;10.30;5.93;;;17.60;99.90;;;;;;4842755;29;20046;-83
2022/09/08 04:39:05;;;;;;;11.25;7.28;;;17.60;99.90;;;;;;4843175;29;20045;-83
2022/09/08 04:41:31;;;;;;;8.95;5.82;;;17.50;99.90;;;;;;4842802;29;20062;-83
2022/09/08 04:44:00;;;;;;;9.13;5.05;;;17.50;99.90;;;;;;4843431;29;20049;-83
2022/09/08 04:46:27;;;;;;;12.05;7.75;;;17.50;99.90;;;;;;4842712;29;20049;-83
2022/09/08 04:48:53;;;;;;;10.38;6.72;;;17.50;99.90;;;;;;4842542;29;20489;-83
2022/09/08 04:51:20;;;;;;;20.48;11.02;;;17.40;99.90;;;;;;4842725;29;20042;-83
2022/09/08 04:53:47;;;;;;;18.00;9.93;;;17.40;99.90;;;;;;4827509;29;20054;-83
2022/09/08 04:56:13;;;;;;;11.00;7.32;;;17.40;99.90;;;;;;4842461;29;20516;-83
2022/09/08 04:58:42;;;;;;;11.00;6.88;;;17.40;99.90;;;;;;4842414;29;20070;-84
2022/09/08 05:01:20;;;;;;;11.15;7.20;;;17.40;99.90;;;;;;4858483;29;20049;-83
2022/09/08 05:03:47;;;;;;;10.98;6.35;;;17.30;99.90;;;;;;4843552;29;20046;-83
2022/09/08 05:06:15;;;;;;;12.05;7.47;;;17.30;99.90;;;;;;4842965;29;20050;-82
2022/09/08 05:08:46;;;;;;;8.98;5.68;;;17.30;99.90;;;;;;4842120;29;20053;-82
2022/09/08 05:11:12;;;;;;;7.97;5.38;;;17.30;99.90;;;;;;4827867;29;20383;-82
2022/09/08 05:13:38;;;;;;;10.85;6.15;;;17.30;99.90;;;;;;4842673;29;20049;-82
2022/09/08 05:16:07;;;;;;;9.02;5.90;;;17.30;99.90;;;;;;4797589;29;20052;-82
2022/09/08 05:18:33;;;;;;;10.00;6.00;;;17.20;99.90;;;;;;4843946;29;20041;-84
2022/09/08 05:20:59;;;;;;;9.18;6.03;;;17.30;99.90;;;;;;4842462;29;20041;-84
2022/09/08 05:23:25;;;;;;;10.55;6.47;;;17.30;99.90;;;;;;4827311;29;20045;-84
2022/09/08 05:26:00;;;;;;;11.45;6.20;;;17.40;99.90;;;;;;4842208;29;20498;-84
2022/09/08 05:28:29;;;;;;;11.20;6.90;;;17.40;99.90;;;;;;4841832;29;20094;-84
2022/09/08 05:30:55;;;;;;;9.27;5.93;;;17.40;99.90;;;;;;4842983;29;20125;-84
2022/09/08 05:33:21;;;;;;;12.93;7.22;;;17.40;99.90;;;;;;4857348;29;20038;-84
2022/09/08 05:35:48;;;;;;;9.90;6.47;;;17.50;99.90;;;;;;4857988;29;20046;-83
2022/09/08 05:38:14;;;;;;;10.20;5.90;;;17.40;99.90;;;;;;4857270;29;20049;-83
2022/09/08 05:40:40;;;;;;;9.70;5.75;;;17.40;99.90;;;;;;4825891;29;20542;-83
2022/09/08 05:43:05;;;;;;;11.02;7.55;;;17.40;99.90;;;;;;4841631;29;20086;-83
2022/09/08 05:45:32;;;;;;;20.15;11.68;;;17.40;99.90;;;;;;4838563;29;20046;-83
2022/09/08 05:47:57;;;;;;;15.25;8.48;;;17.30;99.90;;;;;;4823473;29;20057;-83
2022/09/08 05:50:23;;;;;;;15.35;9.38;;;17.30;99.90;;;;;;4831708;29;20129;-83
2022/09/08 05:52:49;;;;;;;17.25;8.45;;;17.30;99.90;;;;;;4843397;29;20075;-83
2022/09/08 05:55:15;;;;;;;14.75;8.23;;;17.30;99.90;;;;;;4827487;29;20446;-83
2022/09/08 05:57:41;;;;;;;14.07;8.80;;;17.30;99.90;;;;;;4843973;29;20049;-83
2022/09/08 06:00:08;;;;;;;9.45;6.50;;;17.30;99.90;;;;;;4810701;29;20109;-83
2022/09/08 06:02:34;;;;;;;9.40;5.70;;;17.40;99.90;;;;;;4842308;29;20049;-83
2022/09/08 06:05:03;;;;;;;10.30;6.22;;;17.40;99.90;;;;;;4841960;29;20045;-84
2022/09/08 06:07:30;;;;;;;21.63;12.35;;;17.20;99.90;;;;;;4842154;29;20046;-84
2022/09/08 06:09:56;;;;;;;19.35;10.25;;;17.40;99.90;;;;;;4826755;29;20050;-83
2022/09/08 06:12:25;;;;;;;14.25;9.02;;;17.40;99.90;;;;;;4841465;29;20408;-83
2022/09/08 06:15:22;;;;;;;10.73;7.15;;;17.40;99.90;;;;;;4811355;29;20045;-83
2022/09/08 06:17:47;;;;;;;11.80;7.20;;;17.60;99.90;;;;;;4841256;29;20046;-86
2022/09/08 06:20:48;;;;;;;10.15;6.13;;;17.40;99.90;;;;;;4841482;29;20405;-86
2022/09/08 06:23:29;;;;;;;19.88;10.88;;;17.00;99.90;;;;;;4771474;30;20063;-86
2022/09/08 06:33:40;;;;;;;19.63;10.68;;;17.20;99.90;;;;;;4771487;29;20055;-85
2022/09/08 06:36:24;;;;;;;19.52;10.25;;;17.20;99.90;;;;;;4789351;29;20417;-85
2022/09/08 06:38:59;;;;;;;16.08;9.32;;;17.20;99.90;;;;;;4789337;29;20460;-85
2022/09/08 06:42:35;;;;;;;15.45;8.15;;;17.20;99.90;;;;;;4778685;30;20155;-85
2022/09/08 06:53:15;;;;;;;22.00;13.00;;;17.10;99.90;;;;;;4736056;30;20148;-85
2022/09/08 06:59:01;;;;;;;11.68;7.50;;;17.10;99.90;;;;;;4782855;29;20130;-85
2022/09/08 07:01:42;;;;;;;20.38;11.13;;;17.00;99.90;;;;;;4828604;29;20057;-86
2022/09/08 07:04:33;;;;;;;12.88;7.90;;;17.00;99.90;;;;;;4835663;29;20057;-87
2022/09/08 07:07:35;;;;;;;19.50;11.55;;;17.00;99.90;;;;;;4858553;29;20057;-87
2022/09/08 07:10:38;;;;;;;;;;;;;;;;;;;;;
2022/09/08 07:14:06;;;;;;;20.98;12.73;;;17.00;99.90;;;;;;4821955;29;20065;-86
2022/09/08 07:17:07;;;;;;;21.45;12.55;;;17.00;99.90;;;;;;4844230;29;20045;-88
2022/09/08 07:20:10;;;;;;;21.55;11.93;;;17.00;99.90;;;;;;4828919;29;20049;-88
2022/09/08 07:22:51;;;;;;;22.98;12.88;;;16.80;99.90;;;;;;4844237;29;20052;-88
2022/09/08 07:25:45;;;;;;;19.50;12.40;;;16.70;99.90;;;;;;4844140;29;20050;-88
2022/09/08 07:28:55;;;;;;;20.92;12.55;;;16.70;99.90;;;;;;4809174;29;20493;-88
2022/09/08 07:31:53;;;;;;;18.45;11.07;;;16.70;99.90;;;;;;4801488;29;20054;-86
2022/09/08 07:34:38;;;;;;;16.90;10.00;;;16.60;99.90;;;;;;4825729;29;20126;-85
2022/09/08 07:37:25;;;;;;;15.50;9.43;;;16.70;99.90;;;;;;4826070;29;20054;-85
2022/09/08 07:39:59;;;;;;;13.38;8.05;;;16.60;99.90;;;;;;4825872;29;20049;-85
2022/09/08 07:42:31;;;;;;;13.93;6.97;;;16.60;99.90;;;;;;4829157;29;20057;-85
2022/09/08 07:45:04;;;;;;;10.57;6.22;;;16.60;99.90;;;;;;4843793;29;20129;-85
2022/09/08 07:48:02;;;;;;;11.38;6.85;;;16.70;99.90;;;;;;4844105;29;20518;-88
2022/09/08 07:50:56;;;;;;;10.90;6.72;;;16.70;99.90;;;;;;4826500;29;20046;-88
2022/09/08 07:54:19;;;;;;;9.35;5.05;;;16.70;99.90;;;;;;4859884;29;20393;-88
2022/09/08 07:57:03;;;;;;;12.23;7.72;;;16.80;99.90;;;;;;4816382;29;20049;-86
2022/09/08 07:59:35;;;;;;;15.40;8.27;;;16.80;99.90;;;;;;4856057;29;20050;-86
2022/09/08 08:02:19;;;;;;;9.95;6.03;;;16.80;99.90;;;;;;4824913;29;20050;-86
2022/09/08 08:05:14;;;;;;;11.15;6.95;;;16.80;99.90;;;;;;4826497;29;20069;-86
2022/09/08 08:08:12;;;;;;;11.68;7.25;;;16.80;99.90;;;;;;4833786;29;20053;-86
2022/09/08 08:11:04;;;;;;;9.38;5.38;;;16.80;99.90;;;;;;4862076;29;20082;-86
2022/09/08 08:13:44;;;;;;;5.75;2.70;;;16.60;99.90;;;;;;4862089;29;20049;-86
2022/09/08 08:16:15;;;;;;;3.33;2.13;;;16.40;99.90;;;;;;4857910;29;20066;-85
2022/09/08 08:19:02;;;;;;;3.90;1.98;;;16.10;99.90;;;;;;4843074;29;20505;-85
2022/09/08 08:21:54;;;;;;;2.28;1.55;;;16.00;99.90;;;;;;4828193;29;20050;-87
2022/09/08 08:24:39;;;;;;;4.00;1.90;;;15.90;99.90;;;;;;4843175;29;20049;-87
2022/09/08 08:27:44;;;;;;;3.88;1.60;;;15.90;99.90;;;;;;4843274;29;20078;-86
2022/09/08 08:30:20;;;;;;;2.05;1.08;;;15.80;99.90;;;;;;4822381;29;20540;-86
2022/09/08 08:33:01;;;;;;;2.60;1.27;;;15.80;99.90;;;;;;4827784;29;20052;-86
2022/09/08 08:35:50;;;;;;;1.45;1.02;;;15.80;99.90;;;;;;4843076;29;20046;-87
2022/09/08 08:38:44;;;;;;;2.38;0.98;;;15.80;99.90;;;;;;4842931;29;20111;-86
2022/09/08 08:41:34;;;;;;;2.03;1.20;;;15.70;99.90;;;;;;4832991;29;20054;-86
2022/09/08 08:44:22;;;;;;;2.08;1.40;;;15.70;99.90;;;;;;4838133;29;20053;-85
2022/09/08 08:47:18;;;;;;;1.83;1.13;;;15.60;99.90;;;;;;4842753;29;20049;-85
2022/09/08 08:50:25;;;;;;;1.45;1.10;;;15.60;99.90;;;;;;4821119;29;20489;-85
2022/09/08 08:53:18;;;;;;;1.55;0.80;;;15.50;99.90;;;;;;4828228;29;20046;-85
2022/09/08 08:56:20;;;;;;;2.05;0.63;;;15.50;99.90;;;;;;4843035;29;20088;-86
2022/09/08 08:59:07;;;;;;;0.68;0.57;;;15.50;99.90;;;;;;4842696;29;20138;-86
2022/09/08 09:02:02;;;;;;;1.00;0.75;;;15.60;99.90;;;;;;4842864;29;20050;-91
2022/09/08 09:04:44;;;;;;;1.17;0.70;;;15.60;99.90;;;;;;4832381;29;20514;-91
2022/09/08 09:07:33;;;;;;;0.88;0.40;;;15.60;99.90;;;;;;4847955;29;20046;-91
2022/09/08 09:10:09;;;;;;;1.40;0.68;;;15.70;99.90;;;;;;4842223;29;20073;-91
2022/09/08 09:13:09;;;;;;;0.60;0.60;;;15.70;99.90;;;;;;4827451;29;20548;-90
2022/09/08 09:15:50;;;;;;;1.15;0.75;;;15.70;99.90;;;;;;4826969;29;20046;-90
2022/09/08 09:18:19;;;;;;;1.05;0.68;;;15.80;99.90;;;;;;4824510;29;20046;-90
2022/09/08 09:20:50;;;;;;;2.83;0.85;;;15.80;99.90;;;;;;4816647;29;20079;-90
2022/09/08 09:23:36;;;;;;;1.90;1.02;;;15.80;99.90;;;;;;4842173;29;20501;-90
2022/09/08 09:26:16;;;;;;;1.02;0.82;;;15.80;99.90;;;;;;4827085;29;20132;-90
2022/09/08 09:29:08;;;;;;;1.13;0.60;;;15.70;99.90;;;;;;4841834;29;20053;-89
2022/09/08 09:31:58;;;;;;;2.03;1.13;;;15.80;99.90;;;;;;4828865;29;20133;-89
2022/09/08 09:34:33;;;;;;;4.97;1.15;;;15.90;99.90;;;;;;4841860;29;20501;-88
2022/09/08 09:37:37;;;;;;;1.95;1.15;;;15.90;99.90;;;;;;4842004;29;20053;-89
2022/09/08 09:40:28;;;;;;;2.10;1.00;;;16.00;99.90;;;;;;4842178;29;20046;-88
2022/09/08 09:43:03;;;;;;;2.35;1.20;;;16.00;99.90;;;;;;4841357;29;20149;-89
2022/09/08 09:45:46;;;;;;;3.65;1.30;;;16.10;99.90;;;;;;4842316;29;20107;-89
2022/09/08 09:48:59;;;;;;;2.08;1.23;;;16.10;99.90;;;;;;4826880;29;20493;-88
2022/09/08 09:51:40;;;;;;;1.77;1.33;;;16.10;99.90;;;;;;4823135;29;20064;-89
2022/09/08 09:54:17;;;;;;;2.17;1.25;;;16.10;99.90;;;;;;4826775;29;20499;-89
2022/09/08 09:57:01;;;;;;;2.40;1.50;;;16.20;99.90;;;;;;4826729;29;20049;-88
2022/09/08 10:00:14;;;;;;;3.35;1.60;;;16.30;99.90;;;;;;4826674;29;20129;-88
2022/09/08 10:03:09;;;;;;;3.45;1.65;;;16.30;99.90;;;;;;4834304;29;20497;-90
2022/09/08 10:06:02;;;;;;;3.63;1.50;;;16.30;99.90;;;;;;4827183;29;20053;-90
2022/09/08 10:09:15;;;;;;;2.28;1.58;;;16.30;99.90;;;;;;4842002;29;20382;-90
2022/09/08 10:12:02;;;;;;;2.42;1.52;;;16.30;99.90;;;;;;4833750;29;20046;-87
2022/09/08 10:15:06;;;;;;;2.70;1.88;;;16.40;99.90;;;;;;4831372;29;20042;-87
2022/09/08 10:18:13;;;;;;;2.45;1.50;;;16.40;99.90;;;;;;4756344;30;20415;-87
2022/09/08 10:20:52;;;;;;;4.72;1.85;;;16.50;99.90;;;;;;4779139;30;20557;-89
2022/09/08 10:23:53;;;;;;;3.33;1.80;;;16.50;99.90;;;;;;4813862;29;20045;-87
2022/09/08 10:26:57;;;;;;;3.67;2.17;;;16.60;99.90;;;;;;4773532;30;20044;-87
2022/09/08 10:29:51;;;;;;;3.05;1.83;;;16.60;99.90;;;;;;4840232;29;20128;-87
2022/09/08 10:32:16;;;;;;;3.25;2.00;;;16.70;99.90;;;;;;4837218;29;20042;-89
2022/09/08 10:34:51;;;;;;;4.20;1.95;;;16.80;99.90;;;;;;4844362;29;20099;-87
2022/09/08 10:37:38;;;;;;;3.58;2.03;;;16.80;99.90;;;;;;4844983;29;20042;-87
2022/09/08 10:40:37;;;;;;;2.88;1.85;;;16.90;99.90;;;;;;4833800;29;20062;-87
2022/09/08 10:43:28;;;;;;;3.38;2.00;;;16.90;99.90;;;;;;4831294;29;20050;-87
2022/09/08 10:46:17;;;;;;;3.85;2.15;;;17.00;99.90;;;;;;4811445;29;20050;-87
2022/09/08 10:49:10;;;;;;;2.97;1.88;;;17.00;99.90;;;;;;4826502;29;20102;-87
2022/09/08 10:51:36;;;;;;;4.22;2.47;;;17.00;99.90;;;;;;4811675;29;20042;-89
2022/09/08 10:54:05;;;;;;;3.35;1.50;;;17.00;99.90;;;;;;4830628;24;20097;-88
2022/09/08 10:56:30;;;;;;;1.27;1.00;;;17.00;99.90;;;;;;4863391;29;20077;-87
2022/09/08 10:59:22;;;;;;;1.63;1.02;;;17.10;99.90;;;;;;4847899;29;20618;-87
2022/09/08 11:02:12;;;;;;;1.77;1.10;;;17.10;99.90;;;;;;4861787;29;20144;-87
2022/09/08 11:04:59;;;;;;;2.55;1.00;;;17.00;99.90;;;;;;4863293;29;20105;-87
2022/09/08 11:08:03;;;;;;;2.90;1.27;;;17.10;99.90;;;;;;4862970;29;20049;-88
2022/09/08 11:10:28;;;;;;;3.35;1.60;;;17.10;99.90;;;;;;4846733;29;20049;-87
2022/09/08 11:13:35;;;;;;;2.95;1.30;;;17.10;99.90;;;;;;4847391;29;20048;-87
2022/09/08 11:16:32;;;;;;;4.53;1.60;;;17.10;99.90;;;;;;4862643;29;20041;-87
2022/09/08 11:19:11;;;;;;;3.20;1.42;;;17.20;99.90;;;;;;4847226;29;20045;-87
2022/09/08 11:22:02;;;;;;;2.47;1.10;;;17.20;99.90;;;;;;4857870;29;20524;-88
2022/09/08 11:24:47;;;;;;;1.65;1.27;;;17.30;99.90;;;;;;4840213;29;20046;-90
2022/09/08 11:27:48;;;;;;;3.63;1.30;;;17.40;99.90;;;;;;4828920;29;20141;-89
2022/09/08 11:30:32;;;;;;;2.45;1.00;;;17.50;99.90;;;;;;4842590;29;20058;-89
2022/09/08 11:33:16;;;;;;;1.75;1.27;;;17.60;99.90;;;;;;4844441;29;20056;-89
2022/09/08 11:36:00;;;;;;;3.22;1.40;;;17.60;99.90;;;;;;4847104;29;20788;-90
2022/09/08 11:38:51;;;;;;;3.50;1.38;;;17.70;99.90;;;;;;4859725;29;20041;-90
2022/09/08 11:41:55;;;;;;;4.28;1.50;;;17.80;99.90;;;;;;4846514;29;20045;-88
2022/09/08 11:44:54;;;;;;;3.15;1.30;;;17.70;99.90;;;;;;4861546;29;20056;-88
2022/09/08 11:47:28;;;;;;;3.55;1.38;;;17.80;99.90;;;;;;4858226;29;20045;-88
2022/09/08 11:49:56;;;;;;;3.50;1.50;;;17.80;99.90;;;;;;4842396;29;20124;-88
2022/09/08 11:52:34;;;;;;;5.85;1.90;;;17.90;99.90;;;;;;4843700;29;20057;-88
2022/09/08 11:55:31;;;;;;;2.72;1.65;;;17.90;99.90;;;;;;4843696;29;20126;-88
2022/09/08 11:58:22;;;;;;;3.72;1.67;;;17.90;99.90;;;;;;4860951;29;20051;-90
2022/09/08 12:00:51;;;;;;;2.70;1.65;;;17.90;99.90;;;;;;4861768;29;20050;-90
2022/09/08 12:03:39;;;;;;;4.07;1.60;;;17.90;99.90;;;;;;4846392;29;20037;-90
2022/09/08 12:06:41;;;;;;;2.95;1.80;;;17.90;99.90;;;;;;4843239;29;20076;-90
2022/09/08 12:09:25;;;;;;;4.05;1.75;;;17.90;99.90;;;;;;4846471;29;20493;-90
2022/09/08 12:12:09;;;;;;;3.17;1.80;;;18.00;99.90;;;;;;4839743;29;20109;-89
2022/09/08 12:15:01;;;;;;;2.60;1.85;;;18.00;99.90;;;;;;4851565;29;20065;-87
2022/09/08 12:17:43;;;;;;;4.35;1.98;;;18.00;99.90;;;;;;4845155;29;20060;-87
2022/09/08 12:20:40;;;;;;;4.40;2.22;;;18.00;99.90;;;;;;4845364;29;20101;-87
2022/09/08 12:23:43;;;;;;;3.60;2.10;;;18.00;99.90;;;;;;4845083;29;20046;-87
2022/09/08 12:26:24;;;;;;;3.97;1.90;;;18.10;99.90;;;;;;4855240;29;20049;-86
2022/09/08 12:29:07;;;;;;;3.60;1.83;;;18.10;99.90;;;;;;4858655;29;20037;-86
2022/09/08 12:32:11;;;;;;;3.90;2.00;;;18.10;99.90;;;;;;4843345;29;20072;-85
2022/09/08 12:35:00;;;;;;;3.90;1.85;;;18.00;99.90;;;;;;4842912;29;20493;-85
2022/09/08 12:37:35;;;;;;;4.28;2.13;;;18.10;99.90;;;;;;4843555;29;20050;-85
2022/09/08 12:40:22;;;;;;;4.40;2.00;;;18.10;99.90;;;;;;4861177;29;20046;-85
2022/09/08 12:43:06;;;;;;;3.85;2.40;;;18.10;99.90;;;;;;4844227;29;20102;-85
2022/09/08 12:45:56;;;;;;;3.47;2.00;;;18.30;99.90;;;;;;4852329;29;20425;-85
2022/09/08 12:48:43;;;;;;;4.22;2.17;;;18.30;99.90;;;;;;4851195;29;20046;-88
2022/09/08 12:51:25;;;;;;;3.65;2.53;;;18.30;99.90;;;;;;4860379;29;20396;-88
2022/09/08 12:54:03;;;;;;;4.90;2.22;;;18.40;99.90;;;;;;4861033;29;20057;-88
2022/09/08 12:56:55;;;;;;;6.22;2.88;;;18.50;99.90;;;;;;4844644;29;20481;-88
2022/09/08 12:59:59;;;;;;;4.95;2.40;;;18.60;99.90;;;;;;4845607;29;20048;-88
2022/09/08 13:02:36;;;;;;;3.80;2.70;;;18.60;99.90;;;;;;4861263;29;20144;-88
2022/09/08 13:05:38;;;;;;;5.65;2.65;;;18.60;99.90;;;;;;4845676;29;20078;-88
2022/09/08 13:08:37;;;;;;;3.42;2.08;;;18.70;99.90;;;;;;4844804;29;20045;-88
2022/09/08 13:11:39;;;;;;;5.40;2.38;;;18.80;99.90;;;;;;4843803;29;20049;-88
2022/09/08 13:14:09;;;;;;;5.13;3.13;;;19.00;99.90;;;;;;4860840;29;20136;-88
2022/09/08 13:16:58;;;;;;;4.35;2.10;;;19.20;99.90;;;;;;4845617;29;20052;-88
2022/09/08 13:19:27;;;;;;;5.97;2.78;;;19.30;99.90;;;;;;4860614;29;20049;-88
2022/09/08 13:22:38;;;;;;;5.35;2.85;;;19.30;99.90;;;;;;4860544;29;20525;-88
2022/09/08 13:25:22;;;;;;;6.40;3.33;;;19.30;99.90;;;;;;4854955;29;20077;-87
2022/09/08 13:27:54;;;;;;;5.07;2.50;;;19.30;99.90;;;;;;4834524;29;20041;-88
2022/09/08 13:30:23;;;;;;;4.47;2.00;;;19.30;99.90;;;;;;4860104;29;20045;-87
2022/09/08 13:32:55;;;;;;;7.93;3.53;;;19.50;99.90;;;;;;4859821;29;20117;-87
2022/09/08 13:36:03;;;;;;;5.00;2.50;;;19.50;99.90;;;;;;4859983;29;20100;-87
2022/09/08 13:38:56;;;;;;;6.05;3.17;;;19.70;99.90;;;;;;4858576;29;20127;-88
2022/09/08 13:41:35;;;;;;;8.25;3.42;;;19.70;99.90;;;;;;4860008;29;20081;-88
2022/09/08 13:44:08;;;;;;;5.63;2.97;;;19.80;99.90;;;;;;4842479;29;20045;-88
2022/09/08 13:47:08;;;;;;;7.50;3.25;;;19.90;99.90;;;;;;4844136;29;20049;-90
2022/09/08 13:50:03;;;;;;;4.97;3.38;;;20.00;99.90;;;;;;4841890;29;20041;-88
2022/09/08 13:53:03;;;;;;;5.43;3.00;;;20.10;99.90;;;;;;4859898;29;20056;-88
2022/09/08 13:55:49;;;;;;;5.65;2.58;;;20.20;99.90;;;;;;4859660;29;20049;-89
2022/09/08 13:58:47;;;;;;;6.20;3.63;;;20.30;99.90;;;;;;4844634;29;20501;-88
2022/09/08 14:01:27;;;;;;;4.57;3.05;;;20.30;99.90;;;;;;4858173;29;20060;-88
2022/09/08 14:03:54;;;;;;;7.55;4.30;;;20.40;99.90;;;;;;4844648;29;20053;-87
2022/09/08 14:06:20;;;;;;;6.20;3.03;;;20.40;99.90;;;;;;4856653;29;20053;-87
2022/09/08 14:09:17;;;;;;;5.68;3.10;;;20.40;99.90;;;;;;4841899;29;20397;-88